sensor_id;sensor_type;location;lat;lon;timestamp;pressure;altitude;pressure_sealevel;temperature;humidity
74268;BME280;62638;51.362;12.472;2023-03-26T00:01:09;99104.22;;;8.08;83.14
74268;BME280;62638;51.362;12.472;2023-03-26T00:03:38;99086.81;;;7.96;82.92
74268;BME280;62638;51.362;12.472;2023-03-26T00:06:10;99100.00;;;7.98;83.36
74268;BME280;62638;51.362;12.472;2023-03-26T00:08:38;99104.97;;;7.93;84.36
74268;BME280;62638;51.362;12.472;2023-03-26T00:11:04;99108.47;;;7.93;83.62
74268;BME280;62638;51.362;12.472;2023-03-26T00:13:30;99098.09;;;7.90;84.08
74268;BME280;62638;51.362;12.472;2023-03-26T00:15:57;99100.75;;;7.90;84.37
74268;BME280;62638;51.362;12.472;2023-03-26T00:18:23;99102.75;;;7.88;84.92
74268;BME280;62638;51.362;12.472;2023-03-26T00:20:59;99099.09;;;7.89;85.32
74268;BME280;62638;51.362;12.472;2023-03-26T00:23:26;99108.59;;;7.92;85.72
74268;BME280;62638;51.362;12.472;2023-03-26T00:25:52;99108.41;;;7.85;86.36
74268;BME280;62638;51.362;12.472;2023-03-26T00:28:18;99098.88;;;7.83;86.56
74268;BME280;62638;51.362;12.472;2023-03-26T00:30:59;99096.34;;;7.81;86.96
74268;BME280;62638;51.362;12.472;2023-03-26T00:33:26;99087.16;;;7.75;87.27
74268;BME280;62638;51.362;12.472;2023-03-26T00:35:53;99071.41;;;7.64;87.91
74268;BME280;62638;51.362;12.472;2023-03-26T00:38:20;99081.59;;;7.69;88.15
74268;BME280;62638;51.362;12.472;2023-03-26T00:40:46;99078.09;;;7.68;88.28
74268;BME280;62638;51.362;12.472;2023-03-26T00:43:14;99090.56;;;7.68;88.44
74268;BME280;62638;51.362;12.472;2023-03-26T00:45:51;99087.63;;;7.71;88.51
74268;BME280;62638;51.362;12.472;2023-03-26T00:48:17;99096.66;;;7.78;87.66
74268;BME280;62638;51.362;12.472;2023-03-26T00:50:44;99088.66;;;7.78;87.75
74268;BME280;62638;51.362;12.472;2023-03-26T00:53:10;99098.50;;;7.78;87.24
74268;BME280;62638;51.362;12.472;2023-03-26T00:55:45;99086.78;;;7.70;87.98
74268;BME280;62638;51.362;12.472;2023-03-26T00:58:13;99093.34;;;7.76;87.70
74268;BME280;62638;51.362;12.472;2023-03-26T01:00:46;99089.22;;;7.64;89.38
74268;BME280;62638;51.362;12.472;2023-03-26T01:03:15;99088.63;;;7.52;89.60
74268;BME280;62638;51.362;12.472;2023-03-26T01:05:56;99082.53;;;7.42;90.12
74268;BME280;62638;51.362;12.472;2023-03-26T01:08:30;99098.81;;;7.57;89.83
74268;BME280;62638;51.362;12.472;2023-03-26T01:10:58;99092.13;;;7.53;90.42
74268;BME280;62638;51.362;12.472;2023-03-26T01:13:32;99088.69;;;7.60;89.58
74268;BME280;62638;51.362;12.472;2023-03-26T01:15:59;99093.25;;;7.68;89.15
74268;BME280;62638;51.362;12.472;2023-03-26T01:18:27;99084.06;;;7.62;89.40
74268;BME280;62638;51.362;12.472;2023-03-26T01:20:59;99081.91;;;7.66;88.67
74268;BME280;62638;51.362;12.472;2023-03-26T01:26:31;99093.25;;;7.68;88.92
74268;BME280;62638;51.362;12.472;2023-03-26T01:29:02;99092.25;;;7.69;88.92
74268;BME280;62638;51.362;12.472;2023-03-26T01:31:53;99091.97;;;7.72;88.57
74268;BME280;62638;51.362;12.472;2023-03-26T01:34:29;99081.13;;;7.73;88.49
74268;BME280;62638;51.362;12.472;2023-03-26T01:39:57;99082.44;;;7.69;88.97
74268;BME280;62638;51.362;12.472;2023-03-26T01:42:33;99090.56;;;7.68;89.82
74268;BME280;62638;51.362;12.472;2023-03-26T01:45:23;99076.34;;;7.59;89.74
74268;BME280;62638;51.362;12.472;2023-03-26T01:47:51;99087.78;;;7.69;88.62
74268;BME280;62638;51.362;12.472;2023-03-26T01:50:17;99093.09;;;7.69;89.01
74268;BME280;62638;51.362;12.472;2023-03-26T01:52:42;99079.19;;;7.58;89.93
74268;BME280;62638;51.362;12.472;2023-03-26T01:55:08;99093.72;;;7.63;89.44
74268;BME280;62638;51.362;12.472;2023-03-26T01:57:45;99085.88;;;7.62;89.47
74268;BME280;62638;51.362;12.472;2023-03-26T02:03:11;99083.28;;;7.52;88.96
74268;BME280;62638;51.362;12.472;2023-03-26T02:06:06;99083.09;;;7.46;89.65
74268;BME280;62638;51.362;12.472;2023-03-26T02:08:41;99082.00;;;7.56;89.00
74268;BME280;62638;51.362;12.472;2023-03-26T02:11:12;99076.97;;;7.53;88.71
74268;BME280;62638;51.362;12.472;2023-03-26T02:13:41;99086.47;;;7.56;88.71
74268;BME280;62638;51.362;12.472;2023-03-26T02:16:07;99077.44;;;7.49;88.58
74268;BME280;62638;51.362;12.472;2023-03-26T02:18:34;99073.88;;;7.40;89.23
74268;BME280;62638;51.362;12.472;2023-03-26T02:21:08;99079.97;;;7.33;89.76
74268;BME280;62638;51.362;12.472;2023-03-26T02:23:35;99075.84;;;7.38;90.03
74268;BME280;62638;51.362;12.472;2023-03-26T02:26:04;99074.72;;;7.41;89.87
74268;BME280;62638;51.362;12.472;2023-03-26T02:28:30;99071.41;;;7.47;89.11
74268;BME280;62638;51.362;12.472;2023-03-26T02:30:55;99079.25;;;7.48;89.74
74268;BME280;62638;51.362;12.472;2023-03-26T02:33:22;99069.22;;;7.42;89.93
74268;BME280;62638;51.362;12.472;2023-03-26T02:35:47;99068.47;;;7.32;90.44
74268;BME280;62638;51.362;12.472;2023-03-26T02:38:12;99066.84;;;7.21;91.07
74268;BME280;62638;51.362;12.472;2023-03-26T02:40:39;99069.25;;;7.24;91.24
74268;BME280;62638;51.362;12.472;2023-03-26T02:43:42;99070.53;;;7.20;91.51
74268;BME280;62638;51.362;12.472;2023-03-26T02:46:08;99057.22;;;7.20;91.65
74268;BME280;62638;51.362;12.472;2023-03-26T02:48:33;99045.47;;;7.13;91.61
74268;BME280;62638;51.362;12.472;2023-03-26T02:50:59;99072.19;;;7.21;91.93
74268;BME280;62638;51.362;12.472;2023-03-26T02:53:25;99057.50;;;7.17;92.09
74268;BME280;62638;51.362;12.472;2023-03-26T02:55:54;99066.00;;;7.21;92.49
74268;BME280;62638;51.362;12.472;2023-03-26T02:58:20;99068.09;;;7.27;92.23
74268;BME280;62638;51.362;12.472;2023-03-26T03:00:45;99064.28;;;7.29;92.56
74268;BME280;62638;51.362;12.472;2023-03-26T03:03:12;99061.31;;;7.33;92.22
74268;BME280;62638;51.362;12.472;2023-03-26T03:05:37;99055.16;;;7.32;92.63
74268;BME280;62638;51.362;12.472;2023-03-26T03:08:07;99053.78;;;7.28;92.91
74268;BME280;62638;51.362;12.472;2023-03-26T03:10:33;99059.94;;;7.28;93.18
74268;BME280;62638;51.362;12.472;2023-03-26T03:12:58;99057.56;;;7.25;93.45
74268;BME280;62638;51.362;12.472;2023-03-26T03:15:24;99052.25;;;7.25;93.59
74268;BME280;62638;51.362;12.472;2023-03-26T03:17:49;99049.91;;;7.22;93.49
74268;BME280;62638;51.362;12.472;2023-03-26T03:20:15;99055.91;;;7.24;93.77
74268;BME280;62638;51.362;12.472;2023-03-26T03:22:40;99048.38;;;7.20;94.43
74268;BME280;62638;51.362;12.472;2023-03-26T03:25:06;99034.31;;;7.10;94.31
74268;BME280;62638;51.362;12.472;2023-03-26T03:27:33;99042.03;;;7.03;95.23
74268;BME280;62638;51.362;12.472;2023-03-26T03:29:58;99041.38;;;7.01;95.12
74268;BME280;62638;51.362;12.472;2023-03-26T03:32:24;99024.56;;;7.01;95.18
74268;BME280;62638;51.362;12.472;2023-03-26T03:34:49;99024.88;;;6.98;95.13
74268;BME280;62638;51.362;12.472;2023-03-26T03:37:16;99037.81;;;7.10;94.54
74268;BME280;62638;51.362;12.472;2023-03-26T03:39:42;99035.34;;;7.17;94.36
74268;BME280;62638;51.362;12.472;2023-03-26T03:42:08;99027.53;;;7.15;94.26
74268;BME280;62638;51.362;12.472;2023-03-26T03:44:33;99027.16;;;7.10;94.18
74268;BME280;62638;51.362;12.472;2023-03-26T03:46:58;99027.94;;;7.20;93.90
74268;BME280;62638;51.362;12.472;2023-03-26T03:49:23;99030.22;;;7.15;94.29
74268;BME280;62638;51.362;12.472;2023-03-26T03:51:49;99038.34;;;7.14;94.67
74268;BME280;62638;51.362;12.472;2023-03-26T03:54:14;99029.44;;;7.23;93.49
74268;BME280;62638;51.362;12.472;2023-03-26T03:56:40;99039.78;;;7.26;93.47
74268;BME280;62638;51.362;12.472;2023-03-26T03:59:05;99029.38;;;7.15;93.38
74268;BME280;62638;51.362;12.472;2023-03-26T04:01:32;99030.22;;;7.15;93.15
74268;BME280;62638;51.362;12.472;2023-03-26T04:03:58;99027.16;;;7.10;93.52
74268;BME280;62638;51.362;12.472;2023-03-26T04:06:23;99033.47;;;7.09;93.41
74268;BME280;62638;51.362;12.472;2023-03-26T04:08:50;99037.66;;;7.12;93.06
74268;BME280;62638;51.362;12.472;2023-03-26T04:11:16;99038.78;;;7.09;92.76
74268;BME280;62638;51.362;12.472;2023-03-26T04:13:41;99036.81;;;7.11;92.72
74268;BME280;62638;51.362;12.472;2023-03-26T04:16:07;99039.09;;;7.06;92.45
74268;BME280;62638;51.362;12.472;2023-03-26T04:18:33;99043.44;;;6.90;93.18
74268;BME280;62638;51.362;12.472;2023-03-26T04:21:00;99042.03;;;7.03;92.18
74268;BME280;62638;51.362;12.472;2023-03-26T04:23:26;99032.63;;;7.09;92.07
74268;BME280;62638;51.362;12.472;2023-03-26T04:25:53;99056.00;;;7.15;91.64
74268;BME280;62638;51.362;12.472;2023-03-26T04:28:26;99038.78;;;7.09;92.14
74268;BME280;62638;51.362;12.472;2023-03-26T04:30:54;99047.94;;;7.07;91.71
74268;BME280;62638;51.362;12.472;2023-03-26T04:33:21;99048.47;;;7.10;91.65
74268;BME280;62638;51.362;12.472;2023-03-26T04:35:49;99051.78;;;7.12;91.48
74268;BME280;62638;51.362;12.472;2023-03-26T04:38:15;99051.13;;;7.10;91.76
74268;BME280;62638;51.362;12.472;2023-03-26T04:40:43;99046.47;;;7.12;91.31
74268;BME280;62638;51.362;12.472;2023-03-26T04:43:12;99046.56;;;7.03;91.90
74268;BME280;62638;51.362;12.472;2023-03-26T04:45:37;99055.66;;;7.00;91.84
74268;BME280;62638;51.362;12.472;2023-03-26T04:48:03;99050.03;;;7.03;91.51
74268;BME280;62638;51.362;12.472;2023-03-26T04:50:31;99043.78;;;6.95;91.79
74268;BME280;62638;51.362;12.472;2023-03-26T04:52:56;99045.19;;;6.99;91.88
74268;BME280;62638;51.362;12.472;2023-03-26T04:55:25;99045.31;;;6.97;91.57
74268;BME280;62638;51.362;12.472;2023-03-26T04:57:55;99039.78;;;7.08;90.98
74268;BME280;62638;51.362;12.472;2023-03-26T05:00:22;99040.66;;;6.99;91.06
74268;BME280;62638;51.362;12.472;2023-03-26T05:02:47;99038.00;;;6.99;91.75
74268;BME280;62638;51.362;12.472;2023-03-26T05:05:18;99038.13;;;7.07;91.02
74268;BME280;62638;51.362;12.472;2023-03-26T05:07:44;99034.22;;;7.02;90.75
74268;BME280;62638;51.362;12.472;2023-03-26T05:10:13;99044.03;;;7.01;91.41
74268;BME280;62638;51.362;12.472;2023-03-26T05:12:39;99036.25;;;7.08;90.72
74268;BME280;62638;51.362;12.472;2023-03-26T05:15:05;99029.56;;;7.21;89.83
74268;BME280;62638;51.362;12.472;2023-03-26T05:17:31;99044.25;;;7.25;89.90
74268;BME280;62638;51.362;12.472;2023-03-26T05:19:59;99035.66;;;7.32;89.52
74268;BME280;62638;51.362;12.472;2023-03-26T05:22:24;99040.22;;;7.39;88.97
74268;BME280;62638;51.362;12.472;2023-03-26T05:24:50;99032.41;;;7.38;89.30
74268;BME280;62638;51.362;12.472;2023-03-26T05:27:16;99049.50;;;7.53;88.47
74268;BME280;62638;51.362;12.472;2023-03-26T05:29:44;99045.16;;;7.52;88.49
74268;BME280;62638;51.362;12.472;2023-03-26T05:32:10;99046.44;;;7.65;87.80
74268;BME280;62638;51.362;12.472;2023-03-26T05:34:38;99053.34;;;7.76;87.69
74268;BME280;62638;51.362;12.472;2023-03-26T05:37:04;99056.69;;;7.78;87.05
74268;BME280;62638;51.362;12.472;2023-03-26T05:39:31;99059.41;;;7.86;86.93
74268;BME280;62638;51.362;12.472;2023-03-26T05:41:57;99047.19;;;8.01;85.71
74268;BME280;62638;51.362;12.472;2023-03-26T05:44:22;99048.03;;;8.02;86.04
74268;BME280;62638;51.362;12.472;2023-03-26T05:46:47;99050.44;;;8.13;85.74
74268;BME280;62638;51.362;12.472;2023-03-26T05:49:12;99054.19;;;8.28;85.06
74268;BME280;62638;51.362;12.472;2023-03-26T05:51:38;99049.97;;;8.51;84.18
74268;BME280;62638;51.362;12.472;2023-03-26T05:54:03;99052.09;;;8.40;84.06
74268;BME280;62638;51.362;12.472;2023-03-26T05:56:28;99056.28;;;8.16;84.87
74268;BME280;62638;51.362;12.472;2023-03-26T05:58:55;99046.41;;;8.09;85.39
74268;BME280;62638;51.362;12.472;2023-03-26T06:01:20;99051.03;;;8.07;85.68
74268;BME280;62638;51.362;12.472;2023-03-26T06:03:48;99029.56;;;8.08;85.27
74268;BME280;62638;51.362;12.472;2023-03-26T06:06:15;99036.91;;;8.06;85.70
74268;BME280;62638;51.362;12.472;2023-03-26T06:08:45;99032.56;;;8.05;86.18
74268;BME280;62638;51.362;12.472;2023-03-26T06:11:13;99033.75;;;8.11;86.00
74268;BME280;62638;51.362;12.472;2023-03-26T06:13:40;99031.25;;;8.09;85.61
74268;BME280;62638;51.362;12.472;2023-03-26T06:16:06;99037.41;;;8.10;85.87
74268;BME280;62638;51.362;12.472;2023-03-26T06:18:31;99036.56;;;8.09;85.92
74268;BME280;62638;51.362;12.472;2023-03-26T06:20:57;99039.09;;;8.11;86.04
74268;BME280;62638;51.362;12.472;2023-03-26T06:23:22;99027.88;;;8.07;85.86
74268;BME280;62638;51.362;12.472;2023-03-26T06:25:48;99029.78;;;8.15;85.83
74268;BME280;62638;51.362;12.472;2023-03-26T06:28:14;99032.91;;;8.10;86.21
74268;BME280;62638;51.362;12.472;2023-03-26T06:30:39;99034.78;;;8.18;85.79
74268;BME280;62638;51.362;12.472;2023-03-26T06:33:05;99032.78;;;8.20;85.78
74268;BME280;62638;51.362;12.472;2023-03-26T06:35:30;99020.25;;;8.12;85.93
74268;BME280;62638;51.362;12.472;2023-03-26T06:37:56;99042.31;;;8.23;85.61
74268;BME280;62638;51.362;12.472;2023-03-26T06:40:22;99039.31;;;8.26;85.48
74268;BME280;62638;51.362;12.472;2023-03-26T06:42:48;99036.66;;;8.26;85.53
74268;BME280;62638;51.362;12.472;2023-03-26T06:45:13;99037.19;;;8.29;85.09
74268;BME280;62638;51.362;12.472;2023-03-26T06:47:38;99031.56;;;8.32;84.45
74268;BME280;62638;51.362;12.472;2023-03-26T06:50:04;99029.72;;;8.33;85.17
74268;BME280;62638;51.362;12.472;2023-03-26T06:52:30;99050.44;;;8.39;84.79
74268;BME280;62638;51.362;12.472;2023-03-26T06:54:55;99041.13;;;8.51;84.28
74268;BME280;62638;51.362;12.472;2023-03-26T06:57:21;99029.63;;;8.50;83.81
74268;BME280;62638;51.362;12.472;2023-03-26T06:59:47;99037.19;;;8.63;83.03
74268;BME280;62638;51.362;12.472;2023-03-26T07:02:12;99040.19;;;8.68;83.75
74268;BME280;62638;51.362;12.472;2023-03-26T07:04:38;99044.38;;;8.62;83.78
74268;BME280;62638;51.362;12.472;2023-03-26T07:07:03;99033.38;;;8.74;83.05
74268;BME280;62638;51.362;12.472;2023-03-26T07:09:29;99038.91;;;8.80;82.77
74268;BME280;62638;51.362;12.472;2023-03-26T07:11:55;99040.81;;;9.04;83.30
74268;BME280;62638;51.362;12.472;2023-03-26T07:14:21;99037.63;;;9.00;81.77
74268;BME280;62638;51.362;12.472;2023-03-26T07:16:48;99029.75;;;8.91;82.06
74268;BME280;62638;51.362;12.472;2023-03-26T07:19:13;99028.81;;;9.08;81.56
74268;BME280;62638;51.362;12.472;2023-03-26T07:21:39;99027.31;;;9.14;81.85
74268;BME280;62638;51.362;12.472;2023-03-26T07:24:05;99024.31;;;9.25;81.35
74268;BME280;62638;51.362;12.472;2023-03-26T07:26:45;99016.63;;;9.38;81.61
74268;BME280;62638;51.362;12.472;2023-03-26T07:29:45;99012.47;;;9.35;81.13
74268;BME280;62638;51.362;12.472;2023-03-26T07:32:22;99011.63;;;9.19;81.41
74268;BME280;62638;51.362;12.472;2023-03-26T07:34:53;99009.28;;;9.24;81.02
74268;BME280;62638;51.362;12.472;2023-03-26T07:37:34;98996.59;;;9.34;80.89
74268;BME280;62638;51.362;12.472;2023-03-26T07:40:15;99000.94;;;9.43;80.77
74268;BME280;62638;51.362;12.472;2023-03-26T07:42:57;98989.09;;;9.37;80.57
74268;BME280;62638;51.362;12.472;2023-03-26T07:45:29;98991.59;;;9.47;81.21
74268;BME280;62638;51.362;12.472;2023-03-26T07:47:58;98992.59;;;9.38;80.82
74268;BME280;62638;51.362;12.472;2023-03-26T07:50:24;98997.09;;;9.37;80.38
74268;BME280;62638;51.362;12.472;2023-03-26T07:52:50;98984.56;;;9.38;80.14
74268;BME280;62638;51.362;12.472;2023-03-26T07:55:16;98991.25;;;9.50;80.01
74268;BME280;62638;51.362;12.472;2023-03-26T07:58:00;98982.59;;;9.48;80.22
74268;BME280;62638;51.362;12.472;2023-03-26T08:00:41;98986.41;;;9.70;79.30
74268;BME280;62638;51.362;12.472;2023-03-26T08:03:30;98984.72;;;9.69;79.18
74268;BME280;62638;51.362;12.472;2023-03-26T08:08:40;98989.16;;;10.17;78.29
74268;BME280;62638;51.362;12.472;2023-03-26T08:14:23;98980.78;;;10.12;76.56
74268;BME280;62638;51.362;12.472;2023-03-26T08:16:58;98973.91;;;10.25;77.00
74268;BME280;62638;51.362;12.472;2023-03-26T08:19:36;98973.72;;;10.27;77.00
74268;BME280;62638;51.362;12.472;2023-03-26T08:22:26;98969.22;;;10.27;76.01
74268;BME280;62638;51.362;12.472;2023-03-26T08:27:40;98963.50;;;10.38;76.41
74268;BME280;62638;51.362;12.472;2023-03-26T08:32:32;98964.13;;;10.40;75.52
74268;BME280;62638;51.362;12.472;2023-03-26T08:34:58;98962.88;;;10.20;75.27
74268;BME280;62638;51.362;12.472;2023-03-26T08:37:24;98957.19;;;10.23;74.83
74268;BME280;62638;51.362;12.472;2023-03-26T08:39:51;98954.59;;;10.46;74.48
74268;BME280;62638;51.362;12.472;2023-03-26T08:42:36;98951.66;;;10.64;73.37
74268;BME280;62638;51.362;12.472;2023-03-26T08:45:25;98953.84;;;10.83;73.72
74268;BME280;62638;51.362;12.472;2023-03-26T08:48:32;98953.00;;;10.60;73.69
74268;BME280;62638;51.362;12.472;2023-03-26T08:51:34;98948.13;;;10.63;72.99
74268;BME280;62638;51.362;12.472;2023-03-26T08:59:28;98940.41;;;10.68;73.10
74268;BME280;62638;51.362;12.472;2023-03-26T09:05:19;98937.84;;;10.75;72.73
74268;BME280;62638;51.362;12.472;2023-03-26T09:13:43;98937.84;;;10.98;71.55
74268;BME280;62638;51.362;12.472;2023-03-26T09:19:32;98936.09;;;11.13;71.69
74268;BME280;62638;51.362;12.472;2023-03-26T09:22:16;98930.69;;;11.73;69.96
74268;BME280;62638;51.362;12.472;2023-03-26T09:25:05;98927.50;;;11.69;69.94
74268;BME280;62638;51.362;12.472;2023-03-26T09:27:52;98931.81;;;11.93;68.23
74268;BME280;62638;51.362;12.472;2023-03-26T09:36:40;98920.16;;;12.15;67.68
74268;BME280;62638;51.362;12.472;2023-03-26T09:39:35;98927.38;;;11.86;67.20
74268;BME280;62638;51.362;12.472;2023-03-26T09:44:54;98913.22;;;11.77;68.67
74268;BME280;62638;51.362;12.472;2023-03-26T09:56:06;98915.09;;;11.54;66.61
74268;BME280;62638;51.362;12.472;2023-03-26T09:58:58;98918.84;;;11.97;66.89
74268;BME280;62638;51.362;12.472;2023-03-26T10:01:30;98910.97;;;12.24;66.28
74268;BME280;62638;51.362;12.472;2023-03-26T10:09:55;98901.81;;;11.60;65.46
74268;BME280;62638;51.362;12.472;2023-03-26T10:12:45;98894.16;;;12.16;63.43
74268;BME280;62638;51.362;12.472;2023-03-26T10:21:07;98870.38;;;14.02;58.58
74268;BME280;62638;51.362;12.472;2023-03-26T10:23:53;98866.03;;;14.42;56.70
74268;BME280;62638;51.362;12.472;2023-03-26T10:34:45;98854.31;;;13.75;55.32
74268;BME280;62638;51.362;12.472;2023-03-26T10:43:22;98844.22;;;13.49;56.48
74268;BME280;62638;51.362;12.472;2023-03-26T10:46:10;98837.72;;;13.37;57.02
74268;BME280;62638;51.362;12.472;2023-03-26T10:51:48;98833.09;;;12.82;58.02
74268;BME280;62638;51.362;12.472;2023-03-26T10:59:57;98830.16;;;12.98;59.61
74268;BME280;62638;51.362;12.472;2023-03-26T11:02:37;98836.41;;;12.84;58.06
74268;BME280;62638;51.362;12.472;2023-03-26T11:08:08;98832.53;;;12.08;61.48
74268;BME280;62638;51.362;12.472;2023-03-26T11:16:00;98831.06;;;12.62;59.97
74268;BME280;62638;51.362;12.472;2023-03-26T11:18:56;98829.50;;;12.96;58.10
74268;BME280;62638;51.362;12.472;2023-03-26T11:21:27;98835.69;;;12.96;57.91
74268;BME280;62638;51.362;12.472;2023-03-26T11:26:54;98825.53;;;13.13;57.55
74268;BME280;62638;51.362;12.472;2023-03-26T11:29:39;98827.06;;;13.22;55.28
74268;BME280;62638;51.362;12.472;2023-03-26T11:32:12;98818.75;;;12.96;56.82
74268;BME280;62638;51.362;12.472;2023-03-26T11:35:02;98833.91;;;12.61;59.09
74268;BME280;62638;51.362;12.472;2023-03-26T11:37:38;98828.69;;;12.74;58.93
74268;BME280;62638;51.362;12.472;2023-03-26T11:40:11;98817.66;;;12.90;59.00
74268;BME280;62638;51.362;12.472;2023-03-26T11:42:39;98822.28;;;12.75;59.83
74268;BME280;62638;51.362;12.472;2023-03-26T11:45:11;98824.66;;;12.85;60.25
74268;BME280;62638;51.362;12.472;2023-03-26T11:47:46;98814.53;;;12.44;60.99
74268;BME280;62638;51.362;12.472;2023-03-26T11:50:19;98815.41;;;12.30;59.05
74268;BME280;62638;51.362;12.472;2023-03-26T11:52:45;98809.16;;;12.23;58.92
74268;BME280;62638;51.362;12.472;2023-03-26T11:55:11;98819.06;;;12.44;58.97
74268;BME280;62638;51.362;12.472;2023-03-26T11:57:39;98815.31;;;12.38;59.30
74268;BME280;62638;51.362;12.472;2023-03-26T12:00:11;98815.81;;;12.27;58.42
74268;BME280;62638;51.362;12.472;2023-03-26T12:02:43;98812.50;;;12.25;60.29
74268;BME280;62638;51.362;12.472;2023-03-26T12:05:22;98814.81;;;12.13;58.10
74268;BME280;62638;51.362;12.472;2023-03-26T12:13:01;98799.94;;;12.11;59.35
74268;BME280;62638;51.362;12.472;2023-03-26T12:15:28;98794.97;;;11.93;60.73
74268;BME280;62638;51.362;12.472;2023-03-26T12:17:56;98798.81;;;12.20;61.64
74268;BME280;62638;51.362;12.472;2023-03-26T12:22:49;98784.59;;;12.26;60.80
74268;BME280;62638;51.362;12.472;2023-03-26T12:25:18;98780.50;;;12.51;60.15
74268;BME280;62638;51.362;12.472;2023-03-26T12:30:21;98779.19;;;12.62;60.29
74268;BME280;62638;51.362;12.472;2023-03-26T12:32:48;98764.63;;;12.50;61.74
74268;BME280;62638;51.362;12.472;2023-03-26T12:35:17;98773.50;;;12.50;60.54
74268;BME280;62638;51.362;12.472;2023-03-26T12:37:45;98777.22;;;12.49;60.18
74268;BME280;62638;51.362;12.472;2023-03-26T12:42:51;98769.19;;;12.35;59.90
74268;BME280;62638;51.362;12.472;2023-03-26T12:45:19;98769.53;;;12.25;60.69
74268;BME280;62638;51.362;12.472;2023-03-26T12:47:46;98776.81;;;12.10;62.07
74268;BME280;62638;51.362;12.472;2023-03-26T12:50:13;98791.94;;;11.67;65.27
74268;BME280;62638;51.362;12.472;2023-03-26T12:53:11;98788.00;;;10.44;75.24
74268;BME280;62638;51.362;12.472;2023-03-26T12:56:00;98801.38;;;9.43;80.56
74268;BME280;62638;51.362;12.472;2023-03-26T12:58:45;98797.78;;;9.04;82.63
74268;BME280;62638;51.362;12.472;2023-03-26T13:04:54;98800.50;;;8.63;84.01
74268;BME280;62638;51.362;12.472;2023-03-26T13:15:51;98775.28;;;8.90;84.22
74268;BME280;62638;51.362;12.472;2023-03-26T13:18:29;98766.91;;;9.09;82.97
74268;BME280;62638;51.362;12.472;2023-03-26T13:21:24;98766.97;;;9.40;83.13
74268;BME280;62638;51.362;12.472;2023-03-26T13:24:20;98766.34;;;9.69;80.75
74268;BME280;62638;51.362;12.472;2023-03-26T13:35:26;98757.88;;;9.88;87.15
74268;BME280;62638;51.362;12.472;2023-03-26T13:38:12;98756.91;;;9.81;85.02
74268;BME280;62638;51.362;12.472;2023-03-26T13:43:14;98756.28;;;9.79;85.47
74268;BME280;62638;51.362;12.472;2023-03-26T13:45:52;98752.72;;;9.87;86.20
74268;BME280;62638;51.362;12.472;2023-03-26T13:48:23;98760.91;;;9.85;84.72
74268;BME280;62638;51.362;12.472;2023-03-26T13:50:59;98744.75;;;9.79;84.18
74268;BME280;62638;51.362;12.472;2023-03-26T13:53:41;98750.25;;;9.77;83.11
74268;BME280;62638;51.362;12.472;2023-03-26T13:56:13;98753.59;;;9.79;83.83
74268;BME280;62638;51.362;12.472;2023-03-26T13:59:00;98750.50;;;9.60;81.35
74268;BME280;62638;51.362;12.472;2023-03-26T14:01:33;98752.00;;;9.62;83.32
74268;BME280;62638;51.362;12.472;2023-03-26T14:12:15;98742.06;;;9.48;81.37
74268;BME280;62638;51.362;12.472;2023-03-26T14:14:56;98748.78;;;9.36;81.10
74268;BME280;62638;51.362;12.472;2023-03-26T14:29:16;98750.00;;;9.25;82.68
74268;BME280;62638;51.362;12.472;2023-03-26T14:32:00;98744.81;;;9.24;84.70
74268;BME280;62638;51.362;12.472;2023-03-26T14:34:44;98750.53;;;9.13;83.56
74268;BME280;62638;51.362;12.472;2023-03-26T14:37:27;98745.19;;;9.13;84.46
74268;BME280;62638;51.362;12.472;2023-03-26T14:48:27;98744.25;;;8.81;85.91
74268;BME280;62638;51.362;12.472;2023-03-26T14:54:00;98734.28;;;8.75;87.38
74268;BME280;62638;51.362;12.472;2023-03-26T15:07:51;98723.13;;;8.31;94.66
74268;BME280;62638;51.362;12.472;2023-03-26T15:11:04;98720.63;;;8.38;97.31
74268;BME280;62638;51.362;12.472;2023-03-26T15:14:35;98723.97;;;8.32;97.59
74268;BME280;62638;51.362;12.472;2023-03-26T15:25:27;98707.41;;;8.12;99.96
74268;BME280;62638;51.362;12.472;2023-03-26T15:28:33;98713.94;;;8.09;100.00
74268;BME280;62638;51.362;12.472;2023-03-26T15:37:15;98698.25;;;7.98;100.00
74268;BME280;62638;51.362;12.472;2023-03-26T15:42:36;98706.59;;;7.95;100.00
74268;BME280;62638;51.362;12.472;2023-03-26T15:50:36;98698.09;;;7.84;100.00
74268;BME280;62638;51.362;12.472;2023-03-26T16:01:37;98698.22;;;7.82;100.00
74268;BME280;62638;51.362;12.472;2023-03-26T16:06:56;98698.09;;;7.84;100.00
74268;BME280;62638;51.362;12.472;2023-03-26T16:09:26;98688.56;;;7.81;100.00
74268;BME280;62638;51.362;12.472;2023-03-26T16:15:26;98694.41;;;7.77;100.00
74268;BME280;62638;51.362;12.472;2023-03-26T16:21:22;98691.75;;;7.77;100.00
74268;BME280;62638;51.362;12.472;2023-03-26T16:26:34;98693.88;;;7.57;100.00
74268;BME280;62638;51.362;12.472;2023-03-26T16:42:50;98686.34;;;7.52;100.00
74268;BME280;62638;51.362;12.472;2023-03-26T16:45:29;98683.88;;;7.59;100.00
74268;BME280;62638;51.362;12.472;2023-03-26T16:51:02;98689.84;;;7.53;100.00
74268;BME280;62638;51.362;12.472;2023-03-26T16:56:32;98678.50;;;7.43;100.00
74268;BME280;62638;51.362;12.472;2023-03-26T17:02:20;98676.19;;;7.48;100.00
74268;BME280;62638;51.362;12.472;2023-03-26T17:04:51;98680.03;;;7.45;100.00
74268;BME280;62638;51.362;12.472;2023-03-26T17:07:22;98679.84;;;7.47;100.00
74268;BME280;62638;51.362;12.472;2023-03-26T17:10:04;98676.53;;;7.45;100.00
74268;BME280;62638;51.362;12.472;2023-03-26T17:13:00;98685.84;;;7.41;100.00
74268;BME280;62638;51.362;12.472;2023-03-26T17:15:44;98686.16;;;7.38;100.00
74268;BME280;62638;51.362;12.472;2023-03-26T17:18:50;98676.81;;;7.34;100.00
74268;BME280;62638;51.362;12.472;2023-03-26T17:21:25;98685.47;;;7.36;100.00
74268;BME280;62638;51.362;12.472;2023-03-26T17:26:41;98690.47;;;7.39;100.00
74268;BME280;62638;51.362;12.472;2023-03-26T17:31:58;98685.47;;;7.27;100.00
74268;BME280;62638;51.362;12.472;2023-03-26T17:44:52;98692.09;;;7.23;100.00